createdAt,value
2018-04-08T00:00:17.249Z,10.73
2018-04-08T00:02:44.735Z,12.17
2018-04-08T00:05:12.237Z,10.67
2018-04-08T00:07:39.721Z,6.77
2018-04-08T00:10:08.544Z,6.53
2018-04-08T00:12:36.030Z,6.23
2018-04-08T00:15:05.678Z,8.63
2018-04-08T00:17:33.170Z,13.00
2018-04-08T00:20:00.673Z,8.60
2018-04-08T00:22:28.154Z,8.40
2018-04-08T00:24:55.728Z,8.03
2018-04-08T00:27:23.329Z,11.77
2018-04-08T00:29:51.935Z,10.60
2018-04-08T00:32:20.152Z,8.50
2018-04-08T00:34:47.689Z,8.97
2018-04-08T00:37:15.172Z,7.20
2018-04-08T00:39:42.670Z,6.27
2018-04-08T00:42:10.162Z,10.13
2018-04-08T00:44:37.670Z,11.70
2018-04-08T00:47:05.138Z,9.57
2018-04-08T00:49:32.769Z,8.13
2018-04-08T00:52:00.277Z,12.43
2018-04-08T00:54:30.460Z,15.10
2018-04-08T00:56:58.752Z,15.10
2018-04-08T00:59:26.998Z,12.80
2018-04-08T01:01:54.509Z,13.53
2018-04-08T01:04:22.021Z,8.27
2018-04-08T01:06:49.503Z,7.83
2018-04-08T01:09:17.759Z,7.27
2018-04-08T01:11:45.248Z,8.30
2018-04-08T01:14:12.722Z,7.33
2018-04-08T01:16:41.006Z,10.37
2018-04-08T01:19:08.526Z,13.27
2018-04-08T01:21:36.769Z,12.07
2018-04-08T01:24:04.247Z,11.17
2018-04-08T01:26:31.760Z,10.43
2018-04-08T01:28:59.301Z,12.57
2018-04-08T01:31:26.779Z,10.37
2018-04-08T01:33:54.286Z,11.97
2018-04-08T01:36:22.527Z,16.70
2018-04-08T01:38:50.028Z,13.43
2018-04-08T01:41:18.313Z,12.33
2018-04-08T01:43:45.824Z,9.60
2018-04-08T01:46:13.333Z,9.43
2018-04-08T01:48:40.841Z,9.27
2018-04-08T01:51:08.303Z,9.50
2018-04-08T01:53:35.853Z,8.27
2018-04-08T01:56:03.343Z,7.43
2018-04-08T01:58:31.562Z,8.37
2018-04-08T02:00:59.047Z,9.17
2018-04-08T02:03:26.523Z,8.30
2018-04-08T02:05:54.025Z,6.90
2018-04-08T02:08:21.505Z,7.73
2018-04-08T02:10:49.028Z,10.33
2018-04-08T02:13:16.518Z,10.20
2018-04-08T02:15:44.025Z,6.83
2018-04-08T02:18:12.274Z,6.43
2018-04-08T02:20:39.776Z,7.80
2018-04-08T02:23:08.013Z,8.73
2018-04-08T02:25:35.513Z,7.17
2018-04-08T02:28:03.003Z,8.23
2018-04-08T02:30:30.529Z,6.40
2018-04-08T02:32:57.996Z,5.77
2018-04-08T02:35:25.495Z,6.73
2018-04-08T02:37:52.965Z,5.73
2018-04-08T02:40:20.483Z,6.13
2018-04-08T02:42:48.012Z,6.33
2018-04-08T02:45:16.278Z,6.30
2018-04-08T02:47:44.513Z,7.53
2018-04-08T02:50:12.022Z,9.80
2018-04-08T02:52:40.280Z,10.43
2018-04-08T02:55:08.575Z,8.57
2018-04-08T02:57:36.805Z,11.47
2018-04-08T03:00:04.322Z,10.23
2018-04-08T03:02:31.801Z,12.63
2018-04-08T03:04:59.286Z,9.13
2018-04-08T03:07:26.778Z,9.20
2018-04-08T03:09:55.092Z,8.90
2018-04-08T03:12:22.554Z,10.57
2018-04-08T03:14:50.046Z,7.43
2018-04-08T03:17:17.512Z,6.60
2018-04-08T03:19:45.801Z,5.43
2018-04-08T03:22:14.032Z,5.60
2018-04-08T03:24:41.513Z,5.43
2018-04-08T03:27:09.007Z,5.70
2018-04-08T03:29:36.479Z,5.40
2018-04-08T03:32:03.986Z,6.93
2018-04-08T03:34:31.468Z,7.77
2018-04-08T03:36:59.747Z,6.27
2018-04-08T03:39:27.994Z,5.50
2018-04-08T03:41:55.572Z,6.97
2018-04-08T03:44:23.808Z,6.57
2018-04-08T03:46:51.310Z,7.87
2018-04-08T03:49:19.556Z,6.90
2018-04-08T03:51:47.057Z,8.30
2018-04-08T03:54:14.537Z,6.47
2018-04-08T03:56:42.040Z,5.17
2018-04-08T03:59:09.545Z,8.57
2018-04-08T04:01:37.041Z,7.57
2018-04-08T04:04:04.503Z,9.47
2018-04-08T04:06:32.001Z,8.70
2018-04-08T04:08:59.454Z,9.53
2018-04-08T04:11:26.958Z,7.77
2018-04-08T04:13:54.512Z,9.67
2018-04-08T04:16:22.014Z,8.77
2018-04-08T04:19:02.134Z,8.83
2018-04-08T04:21:41.556Z,7.93
2018-04-08T04:27:12.664Z,8.60
2018-04-08T04:29:40.142Z,6.57
2018-04-08T04:32:07.643Z,7.90
2018-04-08T04:34:35.110Z,10.90
2018-04-08T04:37:02.634Z,8.97
2018-04-08T04:39:30.100Z,10.00
2018-04-08T04:41:57.591Z,7.63
2018-04-08T04:44:25.064Z,9.90
2018-04-08T04:46:52.555Z,9.20
2018-04-08T04:49:20.015Z,8.83
2018-04-08T04:51:47.849Z,7.20
2018-04-08T04:54:16.098Z,8.00
2018-04-08T04:56:43.567Z,7.17
2018-04-08T04:59:11.071Z,6.30
2018-04-08T05:01:38.556Z,5.63
2018-04-08T05:04:06.056Z,9.20
2018-04-08T05:06:33.519Z,6.03
2018-04-08T05:09:01.801Z,6.27
2018-04-08T05:11:30.040Z,7.67
2018-04-08T05:13:57.630Z,7.13
2018-04-08T05:16:27.871Z,7.07
2018-04-08T05:18:56.149Z,6.27
2018-04-08T05:21:23.618Z,8.23
2018-04-08T05:23:51.122Z,5.43
2018-04-08T05:26:18.591Z,6.77
2018-04-08T05:28:46.088Z,7.47
2018-04-08T05:31:13.561Z,8.17
2018-04-08T05:33:41.080Z,7.63
2018-04-08T05:36:09.321Z,9.60
2018-04-08T05:38:36.821Z,8.87
2018-04-08T05:41:04.321Z,11.53
2018-04-08T05:43:31.817Z,9.10
2018-04-08T05:45:59.295Z,9.20
2018-04-08T05:48:27.573Z,8.10
2018-04-08T05:50:55.063Z,10.43
2018-04-08T05:53:22.562Z,10.10
2018-04-08T05:55:50.091Z,10.93
2018-04-08T05:58:17.594Z,7.63
2018-04-08T06:00:45.832Z,7.13
2018-04-08T06:03:13.330Z,8.87
2018-04-08T06:05:42.405Z,8.40
2018-04-08T06:08:10.713Z,8.10
2018-04-08T06:10:38.980Z,9.27
2018-04-08T06:13:17.546Z,6.27
2018-04-08T06:15:45.031Z,8.53
2018-04-08T06:18:12.547Z,6.77
2018-04-08T06:20:40.034Z,6.93
2018-04-08T06:23:07.714Z,7.37
2018-04-08T06:25:35.221Z,7.47
2018-04-08T06:28:02.741Z,7.60
2018-04-08T06:30:31.004Z,8.47
2018-04-08T06:32:58.524Z,8.70
2018-04-08T06:35:26.029Z,10.07
2018-04-08T06:37:53.695Z,8.37
2018-04-08T06:40:21.953Z,8.30
2018-04-08T06:42:49.450Z,11.13
2018-04-08T06:45:16.965Z,8.57
2018-04-08T06:47:44.459Z,7.03
2018-04-08T06:50:12.696Z,7.20
2018-04-08T06:52:40.202Z,9.23
2018-04-08T06:55:07.773Z,10.47
2018-04-08T06:57:35.285Z,7.07
2018-04-08T07:00:02.757Z,8.23
2018-04-08T07:02:31.029Z,7.93
2018-04-08T07:04:59.276Z,11.77
2018-04-08T07:07:26.795Z,10.00
2018-04-08T07:09:54.270Z,8.17
2018-04-08T07:12:21.821Z,10.10
2018-04-08T07:14:49.374Z,9.77
2018-04-08T07:17:16.874Z,10.50
2018-04-08T07:19:44.339Z,7.83
2018-04-08T07:22:11.852Z,9.33
2018-04-08T07:24:39.360Z,8.13
2018-04-08T07:27:06.876Z,10.00
2018-04-08T07:29:34.363Z,11.07
2018-04-08T07:32:01.873Z,10.10
2018-04-08T07:34:29.373Z,9.53
2018-04-08T07:36:56.870Z,10.60
2018-04-08T07:39:25.114Z,11.00
2018-04-08T07:41:52.620Z,10.13
2018-04-08T07:44:20.461Z,9.63
2018-04-08T07:46:49.089Z,13.07
2018-04-08T07:49:16.595Z,14.27
2018-04-08T07:51:44.066Z,11.37
2018-04-08T07:54:12.347Z,10.70
2018-04-08T07:56:40.605Z,11.07
2018-04-08T07:59:08.159Z,13.80
2018-04-08T08:01:35.619Z,14.67
2018-04-08T08:04:03.146Z,11.53
2018-04-08T08:06:30.643Z,12.87
2018-04-08T08:08:58.937Z,13.40
2018-04-08T08:11:26.446Z,12.80
2018-04-08T08:13:53.961Z,13.27
2018-04-08T08:16:21.444Z,15.20
2018-04-08T08:18:48.970Z,14.40
2018-04-08T08:21:17.220Z,18.33
2018-04-08T08:23:44.742Z,14.13
2018-04-08T08:26:12.323Z,13.38
2018-04-08T08:28:39.846Z,15.05
2018-04-08T08:31:07.343Z,15.80
2018-04-08T08:33:34.862Z,12.32
2018-04-08T08:36:02.342Z,14.50
2018-04-08T08:38:29.862Z,14.57
2018-04-08T08:40:57.333Z,13.10
2018-04-08T08:43:25.618Z,12.10
2018-04-08T08:45:53.198Z,11.68
2018-04-08T08:48:20.725Z,12.93
2018-04-08T08:50:48.981Z,11.43
2018-04-08T08:53:17.389Z,13.18
2018-04-08T08:55:44.884Z,11.82
2018-04-08T08:58:12.376Z,12.95
2018-04-08T09:00:39.877Z,12.50
2018-04-08T09:03:07.364Z,10.75
2018-04-08T09:05:34.859Z,11.77
2018-04-08T09:08:02.367Z,13.35
2018-04-08T09:10:29.914Z,12.25
2018-04-08T09:12:57.404Z,12.13
2018-04-08T09:15:24.917Z,13.40
2018-04-08T09:17:52.403Z,12.13
2018-04-08T09:20:25.517Z,12.35
2018-04-08T09:26:10.698Z,12.65
2018-04-08T09:28:38.171Z,11.73
2018-04-08T09:31:05.671Z,11.25
2018-04-08T09:33:33.152Z,15.25
2018-04-08T09:36:01.280Z,13.27
2018-04-08T09:38:28.814Z,15.05
2018-04-08T09:40:57.108Z,13.62
2018-04-08T09:43:25.347Z,14.43
2018-04-08T09:45:52.874Z,13.80
2018-04-08T09:48:20.388Z,14.23
2018-04-08T09:50:47.891Z,12.90
2018-04-08T09:53:15.359Z,13.75
2018-04-08T09:55:42.862Z,14.15
2018-04-08T09:58:11.973Z,13.80
2018-04-08T10:03:48.847Z,14.05
2018-04-08T10:06:16.375Z,13.57
2018-04-08T10:08:43.868Z,15.10
2018-04-08T10:11:12.140Z,13.98
2018-04-08T10:13:39.626Z,14.77
2018-04-08T10:16:07.151Z,14.35
2018-04-08T10:18:34.639Z,12.93
2018-04-08T10:21:02.168Z,13.45
2018-04-08T10:23:29.690Z,14.57
2018-04-08T10:25:57.196Z,14.48
2018-04-08T10:28:25.453Z,11.85
2018-04-08T10:30:52.957Z,13.85
2018-04-08T10:33:20.441Z,14.68
2018-04-08T10:35:47.965Z,14.20
2018-04-08T10:38:15.459Z,13.23
2018-04-08T10:40:42.983Z,12.07
2018-04-08T10:43:10.471Z,11.55
2018-04-08T10:45:38.012Z,14.80
2018-04-08T10:48:05.491Z,11.25
2018-04-08T10:50:33.011Z,11.77
2018-04-08T10:53:01.273Z,11.50
2018-04-08T10:55:29.558Z,12.68
2018-04-08T10:57:57.849Z,11.60
2018-04-08T11:00:25.349Z,12.73
2018-04-08T11:02:52.833Z,11.48
2018-04-08T11:05:21.150Z,10.02
2018-04-08T11:07:48.638Z,11.98
2018-04-08T11:10:16.147Z,10.38
2018-04-08T11:12:44.446Z,9.38
2018-04-08T11:15:11.960Z,8.70
2018-04-08T11:17:39.436Z,9.95
2018-04-08T11:20:07.715Z,9.65
2018-04-08T11:22:35.183Z,9.02
2018-04-08T11:25:02.719Z,8.93
2018-04-08T11:27:30.968Z,9.82
2018-04-08T11:29:58.467Z,9.23
2018-04-08T11:32:25.932Z,9.15
2018-04-08T11:34:53.442Z,9.35
2018-04-08T11:37:20.941Z,8.20
2018-04-08T11:39:48.481Z,9.35
2018-04-08T11:42:15.953Z,9.98
2018-04-08T11:44:44.187Z,8.73
2018-04-08T11:47:11.699Z,9.40
2018-04-08T11:49:39.193Z,13.20
2018-04-08T11:52:06.696Z,12.80
2018-04-08T11:54:35.005Z,11.55
2018-04-08T11:57:02.489Z,11.95
2018-04-08T11:59:30.182Z,11.73
2018-04-08T12:01:57.726Z,11.20
2018-04-08T12:04:25.176Z,11.80
2018-04-08T12:06:52.708Z,12.70
2018-04-08T12:09:20.246Z,12.55
2018-04-08T12:11:47.759Z,11.82
2018-04-08T12:14:15.296Z,11.50
2018-04-08T12:16:42.768Z,11.90
2018-04-08T12:19:10.264Z,13.00
2018-04-08T12:21:38.570Z,12.32
2018-04-08T12:24:06.081Z,10.90
2018-04-08T12:26:43.494Z,9.45
2018-04-08T12:29:11.756Z,9.23
2018-04-08T12:31:39.251Z,9.25
2018-04-08T12:34:06.876Z,11.38
2018-04-08T12:36:35.128Z,9.65
2018-04-08T12:39:02.610Z,10.20
2018-04-08T12:41:30.901Z,9.95
2018-04-08T12:43:58.376Z,9.85
2018-04-08T12:46:25.894Z,10.35
2018-04-08T12:48:53.382Z,7.87
2018-04-08T12:51:20.885Z,8.98
2018-04-08T12:53:48.369Z,9.68
2018-04-08T12:56:15.874Z,9.65
2018-04-08T12:58:43.355Z,10.40
2018-04-08T13:01:10.869Z,9.20
2018-04-08T13:03:38.404Z,9.48
2018-04-08T13:06:05.888Z,14.43
2018-04-08T13:08:33.381Z,10.23
2018-04-08T13:11:00.878Z,8.25
2018-04-08T13:13:29.145Z,9.50
2018-04-08T13:15:56.681Z,9.60
2018-04-08T13:18:24.193Z,7.93
2018-04-08T13:20:51.700Z,7.40
2018-04-08T13:23:19.184Z,8.65
2018-04-08T13:25:47.462Z,9.45
2018-04-08T13:28:15.710Z,7.53
2018-04-08T13:30:43.221Z,7.55
2018-04-08T13:33:10.689Z,7.18
2018-04-08T13:35:38.214Z,6.93
2018-04-08T13:38:06.461Z,6.70
2018-04-08T13:40:34.726Z,5.53
2018-04-08T13:43:02.221Z,8.05
2018-04-08T13:45:30.476Z,6.57
2018-04-08T13:47:58.012Z,8.63
2018-04-08T13:50:25.492Z,5.40
2018-04-08T13:52:53.040Z,5.43
2018-04-08T13:55:20.517Z,7.75
2018-04-08T13:57:48.015Z,8.65
2018-04-08T14:00:15.505Z,6.45
2018-04-08T14:02:43.028Z,5.07
2018-04-08T14:05:10.508Z,4.87
2018-04-08T14:07:38.025Z,5.37
2018-04-08T14:10:06.285Z,7.47
2018-04-08T14:12:33.781Z,5.18
2018-04-08T14:15:01.246Z,7.95
2018-04-08T14:17:28.763Z,7.68
2018-04-08T14:19:56.248Z,6.47
2018-04-08T14:22:24.510Z,5.82
2018-04-08T14:24:52.766Z,7.05
2018-04-08T14:27:20.360Z,6.40
2018-04-08T14:29:47.835Z,5.82
2018-04-08T14:32:15.362Z,6.30
2018-04-08T14:34:42.866Z,9.80
2018-04-08T14:37:10.351Z,5.72
2018-04-08T14:39:37.868Z,5.97
2018-04-08T14:42:05.398Z,6.22
2018-04-08T14:44:33.660Z,7.85
2018-04-08T14:47:03.953Z,5.75
2018-04-08T14:49:31.428Z,7.80
2018-04-08T14:51:58.937Z,5.95
2018-04-08T14:54:26.441Z,6.72
2018-04-08T14:56:53.967Z,5.82
2018-04-08T14:59:21.460Z,8.63
2018-04-08T15:01:48.985Z,8.52
2018-04-08T15:04:16.475Z,8.23
2018-04-08T15:06:43.983Z,6.72
2018-04-08T15:09:11.464Z,7.22
2018-04-08T15:11:38.991Z,7.12
2018-04-08T15:14:07.237Z,5.03
2018-04-08T15:16:34.759Z,5.62
2018-04-08T15:19:02.251Z,11.57
2018-04-08T15:21:29.773Z,6.97
2018-04-08T15:23:57.245Z,5.90
2018-04-08T15:26:24.773Z,5.50
2018-04-08T15:28:52.243Z,4.30
2018-04-08T15:31:19.764Z,5.28
2018-04-08T15:33:47.239Z,6.97
2018-04-08T15:36:14.766Z,3.87
2018-04-08T15:38:43.022Z,6.43
2018-04-08T15:41:10.562Z,7.50
2018-04-08T15:43:38.304Z,6.30
2018-04-08T15:46:05.818Z,6.37
2018-04-08T15:48:33.490Z,6.35
2018-04-08T15:51:01.766Z,5.00
2018-04-08T15:53:30.041Z,8.05
2018-04-08T15:55:58.336Z,4.28
2018-04-08T15:58:25.800Z,5.05
2018-04-08T16:00:53.341Z,6.70
2018-04-08T16:03:21.603Z,4.40
2018-04-08T16:05:49.158Z,5.37
2018-04-08T16:08:16.757Z,6.43
2018-04-08T16:10:44.250Z,8.82
2018-04-08T16:13:11.736Z,6.83
2018-04-08T16:15:39.267Z,5.63
2018-04-08T16:18:06.728Z,7.90
2018-04-08T16:20:34.236Z,8.63
2018-04-08T16:23:01.719Z,6.40
2018-04-08T16:25:29.241Z,8.50
2018-04-08T16:27:57.486Z,8.70
2018-04-08T16:30:25.950Z,8.03
2018-04-08T16:32:53.468Z,7.57
2018-04-08T16:35:21.799Z,8.10
2018-04-08T16:37:49.312Z,6.33
2018-04-08T16:40:16.838Z,6.97
2018-04-08T16:42:44.332Z,6.63
2018-04-08T16:45:11.848Z,6.30
2018-04-08T16:47:39.333Z,5.57
2018-04-08T16:50:06.902Z,6.37
2018-04-08T16:52:35.124Z,6.47
2018-04-08T16:55:02.643Z,10.97
2018-04-08T16:57:30.146Z,8.77
2018-04-08T16:59:57.612Z,4.90
2018-04-08T17:02:25.139Z,10.17
2018-04-08T17:04:52.639Z,11.60
2018-04-08T17:07:20.132Z,5.90
2018-04-08T17:09:47.613Z,8.97
2018-04-08T17:12:15.133Z,7.60
2018-04-08T17:14:42.639Z,6.63
2018-04-08T17:17:12.381Z,9.30
2018-04-08T17:19:40.654Z,9.63
2018-04-08T17:22:08.154Z,8.43
2018-04-08T17:24:35.634Z,8.27
2018-04-08T17:27:03.160Z,9.33
2018-04-08T17:29:30.649Z,7.67
2018-04-08T17:31:58.164Z,7.90
2018-04-08T17:34:25.654Z,9.30
2018-04-08T17:36:53.155Z,8.50
2018-04-08T17:39:20.646Z,7.73
2018-04-08T17:41:48.171Z,9.03
2018-04-08T17:44:15.664Z,7.70
2018-04-08T17:46:43.192Z,7.40
2018-04-08T17:49:10.668Z,9.00
2018-04-08T17:51:39.193Z,9.03
2018-04-08T17:54:06.674Z,10.60
2018-04-08T17:56:34.176Z,12.10
2018-04-08T17:59:02.438Z,9.60
2018-04-08T18:01:30.719Z,10.97
2018-04-08T18:03:58.962Z,8.13
2018-04-08T18:06:26.509Z,9.37
2018-04-08T18:08:53.987Z,7.47
2018-04-08T18:11:21.541Z,7.33
2018-04-08T18:13:49.064Z,8.53
2018-04-08T18:16:16.562Z,8.80
2018-04-08T18:18:44.889Z,10.30
2018-04-08T18:21:12.518Z,8.03
2018-04-08T18:23:40.021Z,10.13
2018-04-08T18:26:07.541Z,7.87
2018-04-08T18:28:35.051Z,9.73
2018-04-08T18:31:02.560Z,9.90
2018-04-08T18:33:30.175Z,10.33
2018-04-08T18:35:57.660Z,9.77
2018-04-08T18:38:25.995Z,8.67
2018-04-08T18:40:53.774Z,9.07
2018-04-08T18:43:21.469Z,12.53
2018-04-08T18:45:49.775Z,11.27
2018-04-08T18:48:17.307Z,12.43
2018-04-08T18:50:45.580Z,10.43
2018-04-08T18:53:13.866Z,11.00
2018-04-08T18:55:41.373Z,11.93
2018-04-08T18:58:08.928Z,10.33
2018-04-08T19:00:36.412Z,11.23
2018-04-08T19:03:04.060Z,10.83
2018-04-08T19:05:31.597Z,10.17
2018-04-08T19:07:59.225Z,9.87
2018-04-08T19:10:27.476Z,8.63
2018-04-08T19:12:55.137Z,8.67
2018-04-08T19:15:23.547Z,9.87
2018-04-08T19:17:57.552Z,9.23
2018-04-08T19:20:25.040Z,9.07
2018-04-08T19:22:53.336Z,7.83
2018-04-08T19:25:20.815Z,11.47
2018-04-08T19:27:49.112Z,11.37
2018-04-08T19:30:21.165Z,8.90
2018-04-08T19:32:48.677Z,11.53
2018-04-08T19:35:16.192Z,8.43
2018-04-08T19:37:44.512Z,10.80
2018-04-08T19:40:12.077Z,10.60
2018-04-08T19:42:39.607Z,11.47
2018-04-08T19:45:07.853Z,11.53
2018-04-08T19:47:35.373Z,12.73
2018-04-08T19:50:02.856Z,15.83
2018-04-08T19:52:30.369Z,8.70
2018-04-08T19:54:58.060Z,9.67
2018-04-08T19:57:25.579Z,7.07
2018-04-08T19:59:53.063Z,5.17
2018-04-08T20:02:20.594Z,11.43
2018-04-08T20:04:48.331Z,11.67
2018-04-08T20:07:16.641Z,8.80
2018-04-08T20:09:44.158Z,8.10
2018-04-08T20:12:12.533Z,10.00
2018-04-08T20:14:40.819Z,10.67
2018-04-08T20:17:08.338Z,8.20
2018-04-08T20:19:35.855Z,10.73
2018-04-08T20:22:03.374Z,9.97
2018-04-08T20:24:30.861Z,9.87
2018-04-08T20:26:59.173Z,12.93
2018-04-08T20:29:26.699Z,15.30
2018-04-08T20:31:54.982Z,16.27
2018-04-08T20:34:23.237Z,16.83
2018-04-08T20:36:50.758Z,12.93
2018-04-08T20:39:18.242Z,10.80
2018-04-08T20:41:45.757Z,11.23
2018-04-08T20:44:13.324Z,10.70
2018-04-08T20:46:40.855Z,11.33
2018-04-08T20:49:09.233Z,10.43
2018-04-08T20:51:36.692Z,15.07
2018-04-08T20:54:05.923Z,12.93
2018-04-08T20:56:33.464Z,10.67
2018-04-08T20:59:00.948Z,9.33
2018-04-08T21:01:29.408Z,18.73
2018-04-08T21:03:56.894Z,18.27
2018-04-08T21:06:24.396Z,12.80
2018-04-08T21:08:52.686Z,12.40
2018-04-08T21:11:20.216Z,17.77
2018-04-08T21:13:47.723Z,16.63
2018-04-08T21:16:15.261Z,16.40
2018-04-08T21:18:43.526Z,17.43
2018-04-08T21:21:11.809Z,13.93
2018-04-08T21:23:39.334Z,13.67
2018-04-08T21:26:06.845Z,12.03
2018-04-08T21:28:34.382Z,13.20
2018-04-08T21:31:02.652Z,16.30
2018-04-08T21:33:30.892Z,20.30
2018-04-08T21:35:58.415Z,17.00
2018-04-08T21:38:25.919Z,20.73
2018-04-08T21:40:53.404Z,12.67
2018-04-08T21:43:21.692Z,12.73
2018-04-08T21:45:49.180Z,16.27
2018-04-08T21:48:16.820Z,13.77
2018-04-08T21:50:44.350Z,11.87
2018-04-08T21:53:15.249Z,12.37
2018-04-08T21:55:42.770Z,13.33
2018-04-08T21:58:10.287Z,8.27
2018-04-08T22:00:37.804Z,8.63
2018-04-08T22:03:05.355Z,7.00
2018-04-08T22:05:32.826Z,8.40
2018-04-08T22:08:00.340Z,12.80
2018-04-08T22:10:27.829Z,7.40
2018-04-08T22:12:55.332Z,7.10
2018-04-08T22:15:22.846Z,8.63
2018-04-08T22:17:50.349Z,7.40
2018-04-08T22:20:17.825Z,12.37
2018-04-08T22:22:45.353Z,10.23
2018-04-08T22:25:12.826Z,7.87
2018-04-08T22:27:40.326Z,6.67
2018-04-08T22:30:07.807Z,5.47
2018-04-08T22:32:35.324Z,7.80
2018-04-08T22:35:03.584Z,7.33
2018-04-08T22:37:31.093Z,7.10
2018-04-08T22:39:58.567Z,8.17
2018-04-08T22:42:26.091Z,5.80
2018-04-08T22:44:53.572Z,9.07
2018-04-08T22:47:21.073Z,8.20
2018-04-08T22:49:48.573Z,8.03
2018-04-08T22:52:16.238Z,12.53
2018-04-08T22:54:43.711Z,11.77
2018-04-08T22:57:11.201Z,10.13
2018-04-08T22:59:38.723Z,10.47
2018-04-08T23:02:06.224Z,11.57
2018-04-08T23:04:33.714Z,9.20
2018-04-08T23:07:01.959Z,9.77
2018-04-08T23:09:29.489Z,9.87
2018-04-08T23:11:56.973Z,9.87
2018-04-08T23:14:24.471Z,8.17
2018-04-08T23:16:51.968Z,10.17
2018-04-08T23:19:19.448Z,10.03
2018-04-08T23:21:46.964Z,11.37
2018-04-08T23:24:14.445Z,10.30
2018-04-08T23:26:42.010Z,7.73
2018-04-08T23:29:09.492Z,9.43
2018-04-08T23:31:37.035Z,8.63
2018-04-08T23:34:04.528Z,12.03
2018-04-08T23:36:32.006Z,7.67
2018-04-08T23:38:59.512Z,8.63
2018-04-08T23:41:27.012Z,6.70
2018-04-08T23:43:54.507Z,7.83
2018-04-08T23:46:22.006Z,7.03
2018-04-08T23:48:50.290Z,6.57
2018-04-08T23:51:18.573Z,8.77
2018-04-08T23:53:46.084Z,5.67
2018-04-08T23:56:13.569Z,8.03
2018-04-08T23:58:41.080Z,7.13
